Potsdam, New York
Current Conditions -  °F | °C
As of 6:53 PM on Sunday 21 Dec 2014 (Local Time) from KMSS Reporting Station
Overcast Overcast  
Wind Chill: -11°   Ceiling: 600
Heat Index: -7°   Visibility: 7mi
Dew Point: -9°   Wind: 5mph
Humidity: 85%   Direction: 90°E
Pressure: 30.38"   Gusts: NA
Location:  44.67°N, 74.98°W
Report Text: KMSS 212353Z AUTO 09004KT 7SM OVC006 M07/M09 A3038 RMK AO2 SLP297 T10721094 11056 21072 53008
Loading
Personal Weather Stations






























Interactive Weather Map New forecast layout! Learn more

10-Day Weather Forecast

Advertisements
Track Severe Weather on mobile